Time;durP1;ratioP1;P1;durP2;ratioP2;P2;SDS_P1;SDS_P2;PMS_P1;PMS_P2;Temp;Humidity;BMP_temperature;BMP_pressure;BME280_temperature;BME280_humidity;BME280_pressure;Samples;Min_cycle;Max_cycle;Signal;HPM_P1;HPM_P2
2023/08/30 00:02:17;;;;;;;9.55;6.07;;;12.40;99.90;;;;;;5028749;28;20044;-73
2023/08/30 00:04:43;;;;;;;9.13;6.20;;;12.40;99.90;;;;;;5028996;28;20030;-73
2023/08/30 00:07:10;;;;;;;8.77;6.60;;;12.40;99.90;;;;;;5030033;28;20025;-72
2023/08/30 00:09:36;;;;;;;9.60;6.90;;;12.40;99.90;;;;;;5028698;28;20523;-72
2023/08/30 00:12:02;;;;;;;9.95;6.95;;;12.40;99.90;;;;;;5030043;28;20037;-72
2023/08/30 00:14:28;;;;;;;9.73;6.47;;;12.40;99.90;;;;;;5028250;28;20029;-72
2023/08/30 00:16:53;;;;;;;12.68;7.47;;;12.50;99.90;;;;;;5028482;28;20040;-73
2023/08/30 00:19:19;;;;;;;10.80;6.82;;;12.50;99.90;;;;;;5027333;28;20022;-72
2023/08/30 00:21:44;;;;;;;11.50;7.38;;;12.50;99.90;;;;;;5027977;28;20099;-73
2023/08/30 00:24:11;;;;;;;8.55;6.32;;;12.50;99.90;;;;;;5026549;28;20040;-72
2023/08/30 00:26:36;;;;;;;9.88;6.60;;;12.50;99.90;;;;;;5029039;28;20041;-72
2023/08/30 00:29:02;;;;;;;8.02;6.85;;;12.60;99.90;;;;;;5029649;28;20385;-72
2023/08/30 00:31:27;;;;;;;11.00;7.78;;;12.60;99.90;;;;;;5026300;28;20041;-72
2023/08/30 00:33:53;;;;;;;10.90;7.07;;;12.60;99.90;;;;;;5029364;28;20028;-73
2023/08/30 00:36:18;;;;;;;10.75;7.13;;;12.60;99.90;;;;;;5028382;28;20033;-72
2023/08/30 00:38:44;;;;;;;10.40;6.93;;;12.70;99.90;;;;;;5028395;28;20108;-73
2023/08/30 00:41:10;;;;;;;11.30;6.95;;;12.70;99.90;;;;;;5026478;28;20053;-73
2023/08/30 00:43:35;;;;;;;10.57;7.10;;;12.80;99.90;;;;;;5021678;28;20030;-72
2023/08/30 00:46:01;;;;;;;8.70;7.20;;;12.80;99.90;;;;;;5027614;28;20028;-72
2023/08/30 00:48:27;;;;;;;10.10;6.40;;;12.80;99.90;;;;;;5030181;28;20041;-74
2023/08/30 00:50:53;;;;;;;11.20;7.55;;;12.90;99.90;;;;;;5015675;28;20029;-72
2023/08/30 00:53:19;;;;;;;9.23;6.97;;;12.90;99.90;;;;;;5027387;28;20476;-72
2023/08/30 00:55:44;;;;;;;7.55;6.55;;;12.90;99.90;;;;;;5032302;28;20040;-72
2023/08/30 00:58:10;;;;;;;9.98;7.68;;;12.90;99.90;;;;;;5032037;28;20555;-72
2023/08/30 01:00:36;;;;;;;13.10;7.30;;;12.90;99.90;;;;;;5032430;28;20547;-72
2023/08/30 01:03:04;;;;;;;12.18;7.25;;;12.90;99.90;;;;;;5030742;28;20033;-73
2023/08/30 01:05:30;;;;;;;9.43;6.32;;;12.80;99.90;;;;;;5029491;28;20056;-72
2023/08/30 01:07:55;;;;;;;9.23;6.65;;;12.80;99.90;;;;;;5032589;28;20057;-72
2023/08/30 01:10:27;;;;;;;8.10;6.55;;;12.70;99.90;;;;;;5031845;28;20092;-72
2023/08/30 01:13:05;;;;;;;10.60;8.05;;;12.70;99.90;;;;;;5014765;28;20137;-73
2023/08/30 01:15:32;;;;;;;11.15;8.32;;;12.60;99.90;;;;;;5027740;28;20421;-72
2023/08/30 01:17:58;;;;;;;9.35;7.43;;;12.60;99.90;;;;;;5030252;28;20112;-72
2023/08/30 01:20:25;;;;;;;10.65;7.53;;;12.50;99.90;;;;;;5013296;28;20013;-73
2023/08/30 01:22:54;;;;;;;9.70;7.05;;;12.50;99.90;;;;;;5030349;28;20103;-73
2023/08/30 01:25:45;;;;;;;11.23;7.15;;;12.50;99.90;;;;;;5032622;28;20113;-72
2023/08/30 01:28:14;;;;;;;13.07;7.80;;;12.40;99.90;;;;;;5032093;28;20030;-72
2023/08/30 01:30:42;;;;;;;10.85;7.95;;;12.30;99.90;;;;;;5031437;28;20039;-72
2023/08/30 01:33:08;;;;;;;12.07;8.85;;;12.30;99.90;;;;;;5025481;28;20076;-73
2023/08/30 01:35:36;;;;;;;12.68;8.77;;;12.30;99.90;;;;;;5032130;28;20049;-72
2023/08/30 01:38:04;;;;;;;11.65;8.40;;;12.20;99.90;;;;;;5030539;28;20032;-72
2023/08/30 01:40:36;;;;;;;12.00;8.60;;;12.20;99.90;;;;;;5028553;28;20511;-72
2023/08/30 01:43:05;;;;;;;12.98;8.73;;;12.10;99.90;;;;;;5031645;28;20029;-73
2023/08/30 01:45:33;;;;;;;13.95;8.65;;;12.10;99.90;;;;;;5029826;28;20061;-73
2023/08/30 01:47:58;;;;;;;14.75;9.48;;;12.10;99.90;;;;;;5027961;28;20030;-73
2023/08/30 01:50:26;;;;;;;11.45;8.88;;;12.00;99.90;;;;;;5031494;28;20546;-73
2023/08/30 01:52:52;;;;;;;13.20;9.07;;;12.00;99.90;;;;;;5028763;28;20022;-72
2023/08/30 01:55:20;;;;;;;12.77;9.73;;;11.90;99.90;;;;;;5029396;28;20022;-72
2023/08/30 01:57:46;;;;;;;13.00;9.15;;;11.90;99.90;;;;;;5031306;28;20378;-72
2023/08/30 02:00:12;;;;;;;13.60;9.15;;;11.90;99.90;;;;;;5028067;28;20037;-73
2023/08/30 02:02:37;;;;;;;16.15;9.73;;;11.90;99.90;;;;;;5016620;28;20072;-73
2023/08/30 02:05:03;;;;;;;16.00;10.07;;;11.90;99.90;;;;;;5030882;28;20022;-72
2023/08/30 02:07:43;;;;;;;15.02;9.70;;;11.90;99.90;;;;;;5031963;28;20044;-72
2023/08/30 02:10:11;;;;;;;13.48;9.40;;;12.00;99.90;;;;;;5020436;28;20018;-72
2023/08/30 02:12:48;;;;;;;12.90;9.48;;;11.90;99.90;;;;;;5031438;28;20037;-72
2023/08/30 02:15:17;;;;;;;15.93;9.90;;;12.00;99.90;;;;;;5027738;28;20029;-72
2023/08/30 02:17:44;;;;;;;12.27;9.32;;;12.00;99.90;;;;;;5030071;28;20434;-73
2023/08/30 02:20:09;;;;;;;14.75;10.05;;;12.00;99.90;;;;;;5030635;28;20381;-73
2023/08/30 02:22:35;;;;;;;14.27;10.32;;;12.10;99.90;;;;;;5028812;28;20072;-72
2023/08/30 02:25:04;;;;;;;13.23;9.80;;;12.10;99.90;;;;;;5026530;28;20026;-73
2023/08/30 02:27:31;;;;;;;12.25;9.00;;;12.00;99.90;;;;;;5031026;28;20021;-72
2023/08/30 02:29:57;;;;;;;13.68;10.40;;;12.10;99.90;;;;;;5023789;28;20026;-72
2023/08/30 02:32:22;;;;;;;17.30;10.48;;;12.00;99.90;;;;;;5030444;28;20021;-72
2023/08/30 02:34:52;;;;;;;16.15;10.38;;;12.10;99.90;;;;;;5013447;28;20025;-73
2023/08/30 02:37:18;;;;;;;13.48;9.82;;;12.00;99.90;;;;;;5030137;28;20025;-72
2023/08/30 02:39:44;;;;;;;14.70;10.57;;;12.00;99.90;;;;;;5022891;28;20097;-72
2023/08/30 02:42:10;;;;;;;25.52;10.25;;;12.00;99.90;;;;;;5028417;28;20080;-72
2023/08/30 02:44:35;;;;;;;15.65;9.35;;;12.00;99.90;;;;;;5027638;28;20029;-73
2023/08/30 02:47:01;;;;;;;14.68;9.95;;;12.00;99.90;;;;;;5031571;28;20140;-72
2023/08/30 02:49:26;;;;;;;14.43;9.70;;;12.00;99.90;;;;;;5029192;28;20025;-72
2023/08/30 02:51:53;;;;;;;15.07;11.40;;;12.00;99.90;;;;;;5030465;28;20030;-73
2023/08/30 02:54:18;;;;;;;15.15;10.70;;;12.00;99.90;;;;;;5030031;28;20072;-73
2023/08/30 02:56:44;;;;;;;13.88;10.15;;;12.00;99.90;;;;;;5026764;28;20072;-72
2023/08/30 02:59:10;;;;;;;14.57;9.90;;;12.00;99.90;;;;;;5030626;28;20049;-72
2023/08/30 03:01:36;;;;;;;16.02;11.10;;;12.00;99.90;;;;;;5027953;28;20437;-72
2023/08/30 03:04:01;;;;;;;14.52;10.57;;;12.00;99.90;;;;;;5021917;28;20519;-72
2023/08/30 03:06:27;;;;;;;13.82;10.85;;;12.00;99.90;;;;;;5029886;28;20485;-74
2023/08/30 03:08:55;;;;;;;15.30;10.57;;;12.00;99.90;;;;;;5030029;28;20043;-72
2023/08/30 03:11:21;;;;;;;16.60;11.20;;;12.00;99.90;;;;;;5010606;28;20033;-73
2023/08/30 03:13:46;;;;;;;14.15;9.68;;;12.00;99.90;;;;;;5030821;28;20039;-72
2023/08/30 03:16:13;;;;;;;13.65;10.35;;;12.00;99.90;;;;;;5026928;28;20059;-72
2023/08/30 03:18:40;;;;;;;14.82;10.88;;;11.90;99.90;;;;;;5030923;28;20029;-72
2023/08/30 03:21:06;;;;;;;13.68;10.20;;;11.90;99.90;;;;;;5029500;28;20033;-73
2023/08/30 03:23:32;;;;;;;13.38;9.73;;;11.80;99.90;;;;;;5029298;28;20187;-72
2023/08/30 03:25:59;;;;;;;12.52;9.73;;;11.80;99.90;;;;;;5029066;28;20026;-72
2023/08/30 03:28:24;;;;;;;16.67;10.88;;;11.80;99.90;;;;;;5029907;28;20025;-72
2023/08/30 03:30:50;;;;;;;15.80;10.75;;;11.80;99.90;;;;;;5027524;28;20033;-71
2023/08/30 03:33:15;;;;;;;15.35;10.77;;;11.80;99.90;;;;;;5030502;28;20038;-74
2023/08/30 03:35:41;;;;;;;14.07;10.40;;;11.80;99.90;;;;;;5029166;28;20037;-73
2023/08/30 03:38:06;;;;;;;15.57;10.73;;;11.80;99.90;;;;;;5030290;28;20033;-72
2023/08/30 03:40:32;;;;;;;18.42;11.50;;;11.80;99.90;;;;;;5028290;28;20079;-73
2023/08/30 03:42:58;;;;;;;16.67;11.18;;;11.80;99.90;;;;;;5028217;28;20511;-72
2023/08/30 03:45:23;;;;;;;15.13;11.43;;;11.80;99.90;;;;;;5024343;28;20598;-72
2023/08/30 03:47:49;;;;;;;21.27;10.80;;;11.70;99.90;;;;;;5029235;28;20033;-72
2023/08/30 03:50:14;;;;;;;15.75;10.90;;;11.70;99.90;;;;;;5028850;28;20021;-73
2023/08/30 03:52:40;;;;;;;17.02;11.50;;;11.60;99.90;;;;;;5029073;28;20026;-74
2023/08/30 03:55:06;;;;;;;15.48;10.98;;;11.60;99.90;;;;;;5029773;28;20104;-72
2023/08/30 03:57:31;;;;;;;16.23;10.40;;;11.60;99.90;;;;;;5029114;28;20108;-72
2023/08/30 03:59:57;;;;;;;17.25;11.35;;;11.50;99.90;;;;;;5028777;28;20569;-72
2023/08/30 04:02:23;;;;;;;19.02;10.82;;;11.50;99.90;;;;;;5020930;28;20076;-72
2023/08/30 04:04:48;;;;;;;19.25;11.85;;;11.40;99.90;;;;;;5026588;28;20096;-72
2023/08/30 04:07:15;;;;;;;17.45;11.30;;;11.50;99.90;;;;;;5024134;28;20052;-73
2023/08/30 04:09:41;;;;;;;18.85;11.32;;;11.40;99.90;;;;;;5024462;28;20104;-73
2023/08/30 04:12:07;;;;;;;17.02;10.68;;;11.40;99.90;;;;;;5024596;28;20468;-72
2023/08/30 04:14:32;;;;;;;15.10;11.30;;;11.40;99.90;;;;;;5027111;28;20061;-72
2023/08/30 04:16:58;;;;;;;17.63;11.82;;;11.40;99.90;;;;;;5026875;28;20477;-73
2023/08/30 04:19:23;;;;;;;19.55;12.13;;;11.40;99.90;;;;;;5024099;28;20382;-72
2023/08/30 04:21:49;;;;;;;16.90;12.30;;;11.30;99.90;;;;;;5030277;28;20033;-72
2023/08/30 04:24:18;;;;;;;18.20;11.45;;;11.30;99.90;;;;;;5033593;28;20029;-72
2023/08/30 04:26:43;;;;;;;17.05;12.43;;;11.30;99.90;;;;;;5029091;28;20021;-73
2023/08/30 04:29:09;;;;;;;17.50;12.73;;;11.20;99.90;;;;;;5033588;28;20540;-73
2023/08/30 04:31:34;;;;;;;18.45;12.05;;;11.20;99.90;;;;;;5031594;28;20036;-73
2023/08/30 04:34:00;;;;;;;23.10;12.52;;;11.20;99.90;;;;;;5021055;28;20022;-73
2023/08/30 04:36:25;;;;;;;17.77;12.80;;;11.20;99.90;;;;;;5026423;28;20350;-74
2023/08/30 04:38:51;;;;;;;18.88;13.18;;;11.20;99.90;;;;;;5024692;28;20022;-72
2023/08/30 04:41:16;;;;;;;21.30;12.60;;;11.20;99.90;;;;;;5008273;28;20037;-73
2023/08/30 04:43:42;;;;;;;23.38;12.82;;;11.20;99.90;;;;;;5026404;28;20034;-72
2023/08/30 04:46:07;;;;;;;20.05;12.23;;;11.20;99.90;;;;;;5023006;28;20033;-72
2023/08/30 04:48:33;;;;;;;16.52;12.35;;;11.20;99.90;;;;;;5030635;28;20339;-72
2023/08/30 04:51:03;;;;;;;20.27;12.38;;;11.10;99.90;;;;;;5027973;28;20395;-73
2023/08/30 04:53:28;;;;;;;17.90;12.43;;;11.20;99.90;;;;;;5033152;28;20033;-72
2023/08/30 04:55:54;;;;;;;16.98;12.73;;;11.10;99.90;;;;;;5030743;28;20505;-73
2023/08/30 04:58:20;;;;;;;16.75;12.45;;;11.10;99.90;;;;;;5030796;28;20028;-73
2023/08/30 05:00:46;;;;;;;18.83;13.07;;;11.10;99.90;;;;;;5028012;28;20100;-72
2023/08/30 05:03:11;;;;;;;22.20;13.00;;;11.10;99.90;;;;;;5023474;28;20037;-74
2023/08/30 05:05:37;;;;;;;19.42;13.55;;;11.10;99.90;;;;;;5030104;28;20047;-74
2023/08/30 05:08:03;;;;;;;20.90;14.68;;;11.10;99.90;;;;;;5026737;28;20044;-74
2023/08/30 05:10:29;;;;;;;26.85;14.45;;;11.10;99.90;;;;;;5026987;28;20021;-72
2023/08/30 05:12:55;;;;;;;22.23;13.63;;;11.20;99.90;;;;;;5031957;28;20492;-73
2023/08/30 05:15:20;;;;;;;17.75;13.13;;;11.20;99.90;;;;;;5032750;28;20393;-73
2023/08/30 05:17:46;;;;;;;21.30;13.23;;;11.20;99.90;;;;;;5031235;28;20021;-73
2023/08/30 05:20:12;;;;;;;19.75;15.05;;;11.30;99.90;;;;;;5023475;28;20022;-72
2023/08/30 05:22:38;;;;;;;21.60;14.40;;;11.30;99.90;;;;;;5032829;28;20083;-73
2023/08/30 05:25:04;;;;;;;19.92;13.55;;;11.40;99.90;;;;;;5019194;28;20061;-75
2023/08/30 05:27:29;;;;;;;18.58;13.98;;;11.50;99.90;;;;;;5033053;28;20028;-73
2023/08/30 05:29:58;;;;;;;22.17;14.15;;;11.60;99.90;;;;;;5032097;28;20044;-74
2023/08/30 05:32:23;;;;;;;19.52;15.70;;;11.60;99.90;;;;;;5024978;28;20018;-73
2023/08/30 05:34:49;;;;;;;22.13;15.27;;;11.80;99.90;;;;;;5024205;28;20018;-73
2023/08/30 05:37:14;;;;;;;22.17;15.73;;;11.90;99.90;;;;;;5029654;28;20021;-73
2023/08/30 05:39:40;;;;;;;21.30;15.38;;;12.00;99.90;;;;;;5021106;28;20029;-74
2023/08/30 05:42:05;;;;;;;23.27;16.02;;;12.10;99.90;;;;;;5029721;28;20042;-73
2023/08/30 05:44:31;;;;;;;27.25;17.08;;;12.20;99.90;;;;;;5027799;28;20457;-72
2023/08/30 05:46:56;;;;;;;22.90;16.80;;;12.30;99.90;;;;;;5025316;28;20116;-73
2023/08/30 05:49:22;;;;;;;22.38;16.42;;;12.40;99.90;;;;;;5028288;28;20048;-73
2023/08/30 05:51:47;;;;;;;20.92;16.40;;;12.50;99.90;;;;;;5026727;28;20095;-73
2023/08/30 05:54:14;;;;;;;22.67;17.08;;;12.60;99.90;;;;;;5030195;28;20092;-73
2023/08/30 05:56:39;;;;;;;25.30;18.05;;;12.60;99.90;;;;;;5027757;28;20095;-74
2023/08/30 05:59:05;;;;;;;27.27;18.08;;;12.80;99.90;;;;;;5023773;28;20029;-73
2023/08/30 06:01:30;;;;;;;24.98;17.58;;;12.90;99.90;;;;;;5030363;28;20050;-73
2023/08/30 06:03:56;;;;;;;25.75;18.98;;;12.90;99.90;;;;;;5018860;28;20251;-73
2023/08/30 06:06:21;;;;;;;24.15;17.30;;;13.00;99.90;;;;;;5023541;28;20080;-73
2023/08/30 06:08:47;;;;;;;24.45;16.67;;;13.10;99.90;;;;;;5031981;28;20030;-73
2023/08/30 06:11:13;;;;;;;23.00;16.38;;;13.20;99.90;;;;;;5032166;28;20104;-73
2023/08/30 06:13:39;;;;;;;24.23;15.77;;;13.20;99.90;;;;;;5031919;28;20030;-73
2023/08/30 06:16:04;;;;;;;21.90;15.38;;;13.20;99.90;;;;;;5032075;28;20117;-73
2023/08/30 06:18:31;;;;;;;22.63;16.00;;;13.30;99.90;;;;;;5031738;28;20037;-73
2023/08/30 06:20:57;;;;;;;20.75;15.95;;;13.30;99.90;;;;;;5030963;28;20055;-73
2023/08/30 06:23:23;;;;;;;21.50;15.70;;;13.40;99.90;;;;;;5031681;28;20053;-73
2023/08/30 06:25:58;;;;;;;22.92;15.02;;;13.40;99.90;;;;;;5030049;28;20488;-73
2023/08/30 06:28:24;;;;;;;22.35;15.13;;;13.50;99.90;;;;;;5031523;28;20108;-73
2023/08/30 06:30:50;;;;;;;20.77;15.65;;;13.50;99.90;;;;;;5026836;28;20032;-73
2023/08/30 06:33:16;;;;;;;18.40;14.48;;;13.60;99.90;;;;;;5026732;28;20792;-73
2023/08/30 06:35:42;;;;;;;23.50;15.70;;;13.60;99.90;;;;;;5024765;28;20033;-73
2023/08/30 06:38:08;;;;;;;29.55;17.27;;;13.60;99.90;;;;;;5033613;28;20083;-73
2023/08/30 06:40:33;;;;;;;21.55;14.70;;;13.60;99.90;;;;;;5025210;28;20502;-73
2023/08/30 06:42:59;;;;;;;23.23;17.63;;;13.60;99.90;;;;;;5032930;28;20112;-73
2023/08/30 06:45:25;;;;;;;19.75;14.93;;;13.70;99.90;;;;;;5033391;28;20108;-73
2023/08/30 06:47:52;;;;;;;21.27;15.23;;;13.70;99.90;;;;;;5032250;28;20026;-72
2023/08/30 06:50:18;;;;;;;23.08;15.52;;;13.70;99.90;;;;;;5031174;28;20048;-72
2023/08/30 06:52:43;;;;;;;20.52;15.13;;;13.70;99.90;;;;;;5020076;28;20029;-73
2023/08/30 06:55:09;;;;;;;19.05;15.30;;;13.70;99.90;;;;;;5031513;28;20029;-73
2023/08/30 06:57:34;;;;;;;22.98;14.50;;;13.70;99.90;;;;;;5032142;28;20052;-72
2023/08/30 07:00:07;;;;;;;18.90;14.65;;;13.80;99.90;;;;;;5012648;28;20026;-72
2023/08/30 07:02:33;;;;;;;23.30;16.30;;;13.80;99.90;;;;;;5032047;28;20037;-72
2023/08/30 07:04:59;;;;;;;20.05;15.70;;;13.80;99.90;;;;;;5031529;28;20029;-72
2023/08/30 07:07:24;;;;;;;25.02;16.42;;;13.90;99.90;;;;;;5034008;28;20048;-74
2023/08/30 07:09:50;;;;;;;19.92;14.50;;;13.90;99.90;;;;;;5018143;28;20034;-73
2023/08/30 07:12:16;;;;;;;23.52;15.23;;;13.90;99.90;;;;;;5035672;28;20072;-73
2023/08/30 07:14:41;;;;;;;26.33;17.15;;;13.90;99.90;;;;;;5033440;28;20159;-74
2023/08/30 07:17:07;;;;;;;18.33;15.10;;;13.90;99.90;;;;;;5032594;28;20108;-74
2023/08/30 07:19:33;;;;;;;21.55;15.70;;;13.90;99.90;;;;;;5032975;28;20459;-73
2023/08/30 07:21:58;;;;;;;22.92;15.75;;;13.90;99.90;;;;;;5013771;28;20489;-73
2023/08/30 07:24:24;;;;;;;19.27;14.70;;;13.90;99.90;;;;;;5033029;28;20088;-73
2023/08/30 07:26:50;;;;;;;20.77;14.18;;;13.80;99.90;;;;;;5033588;28;20028;-74
2023/08/30 07:29:15;;;;;;;19.83;13.85;;;13.90;99.90;;;;;;5034751;28;20022;-73
2023/08/30 07:31:41;;;;;;;18.45;13.10;;;13.80;99.90;;;;;;5037142;28;20064;-74
2023/08/30 07:34:07;;;;;;;21.83;13.45;;;13.80;99.90;;;;;;5039962;28;20067;-74
2023/08/30 07:36:33;;;;;;;22.33;13.52;;;13.80;99.90;;;;;;5042845;28;20366;-74
2023/08/30 07:38:59;;;;;;;25.55;15.15;;;13.80;99.90;;;;;;5023524;28;20477;-74
2023/08/30 07:41:25;;;;;;;19.27;13.27;;;13.70;99.90;;;;;;5020201;28;20120;-74
2023/08/30 07:43:50;;;;;;;20.00;13.65;;;13.70;99.90;;;;;;5019604;28;20029;-74
2023/08/30 07:46:16;;;;;;;23.80;14.75;;;13.70;99.90;;;;;;5033573;28;20021;-74
2023/08/30 07:48:41;;;;;;;21.25;14.73;;;13.70;99.90;;;;;;5033217;28;20481;-74
2023/08/30 07:51:07;;;;;;;24.30;16.35;;;13.60;99.90;;;;;;5030764;28;20029;-74
2023/08/30 07:53:32;;;;;;;24.50;15.95;;;13.60;99.90;;;;;;5032011;28;20029;-74
2023/08/30 07:55:58;;;;;;;21.00;14.75;;;13.60;99.90;;;;;;5019540;28;20116;-74
2023/08/30 07:58:23;;;;;;;22.73;15.23;;;13.60;99.90;;;;;;5030892;28;20018;-73
2023/08/30 08:00:53;;;;;;;21.83;15.70;;;13.60;99.90;;;;;;5034217;28;20021;-74
2023/08/30 08:03:20;;;;;;;30.05;16.92;;;13.60;99.90;;;;;;5025405;28;20475;-74
2023/08/30 08:05:46;;;;;;;26.85;17.15;;;13.60;99.90;;;;;;5019748;28;20064;-73
2023/08/30 08:08:11;;;;;;;28.73;17.30;;;13.60;99.90;;;;;;5016437;28;20030;-74
2023/08/30 08:10:37;;;;;;;24.45;16.98;;;13.60;99.90;;;;;;5020983;28;20384;-73
2023/08/30 08:13:05;;;;;;;24.60;15.57;;;13.60;99.90;;;;;;5035292;28;20029;-73
2023/08/30 08:15:32;;;;;;;26.10;15.95;;;13.60;99.90;;;;;;5007528;28;20042;-74
2023/08/30 08:17:58;;;;;;;27.20;17.17;;;13.60;99.90;;;;;;5019646;28;20093;-73
2023/08/30 08:20:23;;;;;;;27.55;16.63;;;13.60;99.90;;;;;;5028738;28;20104;-73
2023/08/30 08:22:49;;;;;;;26.75;18.33;;;13.60;99.90;;;;;;5027397;28;20156;-74
2023/08/30 08:25:15;;;;;;;26.67;17.00;;;13.70;99.90;;;;;;5035364;28;20030;-74
2023/08/30 08:27:42;;;;;;;23.48;16.73;;;13.70;99.90;;;;;;5016312;28;20543;-74
2023/08/30 08:30:09;;;;;;;24.17;16.85;;;13.80;99.90;;;;;;5006208;28;20089;-73
2023/08/30 08:32:35;;;;;;;24.02;16.25;;;13.80;99.90;;;;;;5025150;28;20029;-73
2023/08/30 08:35:01;;;;;;;22.70;17.13;;;13.90;99.90;;;;;;5034191;28;20021;-73
2023/08/30 08:37:27;;;;;;;22.23;16.20;;;13.90;99.90;;;;;;5016950;28;20433;-73
2023/08/30 08:39:53;;;;;;;24.67;17.80;;;13.90;99.90;;;;;;5033531;28;20113;-73
2023/08/30 08:42:19;;;;;;;23.70;15.73;;;14.00;99.90;;;;;;5025430;28;20116;-74
2023/08/30 08:44:50;;;;;;;24.85;17.70;;;14.00;99.90;;;;;;5030690;28;20021;-74
2023/08/30 08:47:18;;;;;;;24.45;17.10;;;14.00;99.90;;;;;;5020880;28;20080;-73
2023/08/30 08:49:44;;;;;;;18.17;14.30;;;14.00;99.90;;;;;;5026172;28;20025;-74
2023/08/30 08:52:10;;;;;;;19.90;15.23;;;14.00;99.90;;;;;;5026290;28;20034;-74
2023/08/30 08:54:39;;;;;;;20.40;15.00;;;14.00;99.90;;;;;;5021751;28;20079;-74
2023/08/30 08:57:07;;;;;;;17.88;13.82;;;14.10;99.90;;;;;;5022445;28;20025;-74
2023/08/30 08:59:32;;;;;;;18.00;12.68;;;14.10;99.90;;;;;;5011186;28;20048;-74
2023/08/30 09:02:00;;;;;;;16.33;12.25;;;14.10;99.90;;;;;;5021076;28;20493;-74
2023/08/30 09:04:26;;;;;;;15.93;12.05;;;14.20;99.90;;;;;;5007091;28;20101;-74
2023/08/30 09:06:52;;;;;;;16.63;12.75;;;14.20;99.90;;;;;;5001537;28;20033;-74
2023/08/30 09:09:18;;;;;;;17.83;11.38;;;14.20;99.90;;;;;;5024148;28;20120;-72
2023/08/30 09:11:44;;;;;;;13.32;9.75;;;14.30;99.90;;;;;;5010458;28;20026;-72
2023/08/30 09:14:10;;;;;;;13.88;10.38;;;14.30;99.90;;;;;;5011982;28;20026;-72
2023/08/30 09:16:35;;;;;;;17.00;10.73;;;14.40;99.90;;;;;;5020236;28;20026;-73
2023/08/30 09:19:03;;;;;;;10.68;8.48;;;14.40;99.90;;;;;;5008524;28;20040;-73
2023/08/30 09:21:29;;;;;;;9.93;8.23;;;14.40;99.90;;;;;;5013092;28;20034;-73
2023/08/30 09:24:03;;;;;;;10.93;7.90;;;14.50;99.90;;;;;;5018185;28;20087;-73
2023/08/30 09:26:33;;;;;;;8.38;6.75;;;14.50;99.90;;;;;;5003740;28;20501;-74
2023/08/30 09:29:05;;;;;;;9.48;7.47;;;14.50;99.90;;;;;;5031853;28;20022;-74
2023/08/30 09:31:40;;;;;;;9.98;7.65;;;14.60;99.90;;;;;;5032949;28;20025;-73
2023/08/30 09:34:06;;;;;;;8.52;6.00;;;14.60;99.90;;;;;;5032975;28;20100;-73
2023/08/30 09:36:40;;;;;;;9.65;6.63;;;14.80;99.90;;;;;;5025118;28;20025;-73
2023/08/30 09:39:13;;;;;;;9.52;7.13;;;15.00;99.90;;;;;;5031437;28;20649;-73
2023/08/30 09:41:49;;;;;;;11.32;7.95;;;15.20;99.90;;;;;;5014588;28;20056;-74
2023/08/30 09:44:17;;;;;;;8.52;7.25;;;15.40;99.90;;;;;;5020342;28;20093;-73
2023/08/30 09:46:49;;;;;;;9.55;7.88;;;15.60;99.90;;;;;;5020056;28;20045;-73
2023/08/30 09:49:17;;;;;;;10.52;7.97;;;15.70;99.90;;;;;;5025169;28;20100;-73
2023/08/30 09:51:46;;;;;;;8.52;7.60;;;15.80;99.90;;;;;;5029843;28;20032;-73
2023/08/30 09:54:16;;;;;;;11.18;8.35;;;16.00;99.90;;;;;;5030181;28;20105;-73
2023/08/30 09:56:43;;;;;;;9.63;8.20;;;16.10;99.90;;;;;;5032701;28;20037;-73
2023/08/30 09:59:11;;;;;;;9.73;8.73;;;16.20;99.90;;;;;;5029279;28;20029;-73
2023/08/30 10:01:37;;;;;;;13.07;8.93;;;16.30;99.90;;;;;;5022708;28;20489;-73
2023/08/30 10:04:03;;;;;;;10.70;9.02;;;16.40;99.90;;;;;;5031268;28;20057;-73
2023/08/30 10:06:30;;;;;;;10.05;9.05;;;16.40;99.90;;;;;;5030803;28;20052;-73
2023/08/30 10:08:56;;;;;;;10.80;9.13;;;16.60;99.90;;;;;;5028365;28;20018;-73
2023/08/30 10:11:23;;;;;;;10.60;9.50;;;16.70;99.90;;;;;;5031634;28;20025;-73
2023/08/30 10:13:52;;;;;;;11.55;9.82;;;16.80;99.90;;;;;;5014351;28;20392;-73
2023/08/30 10:16:24;;;;;;;10.57;9.52;;;16.90;99.90;;;;;;5031871;28;20018;-73
2023/08/30 10:18:54;;;;;;;10.23;9.13;;;17.10;99.90;;;;;;5030834;28;20026;-73
2023/08/30 10:21:21;;;;;;;11.55;10.43;;;17.30;99.90;;;;;;5023090;28;20299;-73
2023/08/30 10:23:49;;;;;;;10.95;9.02;;;17.40;99.90;;;;;;5030330;28;20049;-73
2023/08/30 10:26:16;;;;;;;10.50;9.38;;;17.60;99.90;;;;;;5024994;28;20029;-74
2023/08/30 10:28:42;;;;;;;10.93;9.85;;;17.60;99.90;;;;;;5013128;28;20036;-73
2023/08/30 10:31:08;;;;;;;10.43;9.43;;;17.70;99.90;;;;;;5011791;28;20358;-73
2023/08/30 10:33:49;;;;;;;10.82;8.77;;;17.70;99.90;;;;;;5031744;28;20035;-73
2023/08/30 10:36:23;;;;;;;14.25;10.13;;;17.90;99.90;;;;;;5031291;28;20393;-73
2023/08/30 10:38:50;;;;;;;11.10;10.00;;;18.10;99.90;;;;;;5030935;28;20038;-73
2023/08/30 10:41:21;;;;;;;11.90;10.73;;;18.30;99.90;;;;;;5031209;28;20064;-73
2023/08/30 10:43:51;;;;;;;11.88;10.60;;;18.40;99.90;;;;;;5031970;28;20385;-72
2023/08/30 10:46:17;;;;;;;12.13;10.73;;;18.50;99.90;;;;;;5031242;28;20030;-73
2023/08/30 10:48:43;;;;;;;11.48;10.27;;;18.60;99.90;;;;;;5024323;28;20040;-73
2023/08/30 10:51:40;;;;;;;11.07;9.98;;;18.70;99.90;;;;;;5007175;28;20120;-73
2023/08/30 10:54:12;;;;;;;10.80;9.80;;;18.80;99.90;;;;;;5016902;28;20112;-72
2023/08/30 10:57:00;;;;;;;10.75;9.73;;;18.80;99.90;;;;;;5025376;28;20025;-73
2023/08/30 10:59:26;;;;;;;10.02;9.13;;;18.70;99.90;;;;;;5022765;28;20116;-73
2023/08/30 11:01:52;;;;;;;10.00;9.07;;;18.70;99.90;;;;;;5024654;28;20607;-72
2023/08/30 11:04:19;;;;;;;10.13;9.13;;;18.70;99.90;;;;;;5026717;28;21736;-72
2023/08/30 11:06:50;;;;;;;10.68;9.57;;;18.70;99.90;;;;;;5011868;28;20138;-72
2023/08/30 11:09:18;;;;;;;10.63;9.52;;;18.50;99.90;;;;;;5030318;28;20033;-72
2023/08/30 11:11:44;;;;;;;9.88;8.93;;;18.30;99.90;;;;;;5023757;28;20473;-72
2023/08/30 11:14:10;;;;;;;9.20;8.25;;;18.10;99.90;;;;;;5027751;28;20052;-72
2023/08/30 11:16:36;;;;;;;7.18;6.47;;;18.00;99.90;;;;;;5027627;28;20107;-72
2023/08/30 11:19:03;;;;;;;7.35;6.07;;;18.00;99.90;;;;;;5030682;28;20037;-72
2023/08/30 11:21:30;;;;;;;7.20;5.88;;;18.00;99.90;;;;;;5030689;28;20033;-72
2023/08/30 11:23:56;;;;;;;7.10;5.22;;;18.20;99.90;;;;;;5030625;28;20473;-72
2023/08/30 11:26:22;;;;;;;6.25;4.68;;;18.50;99.90;;;;;;5029809;28;20096;-72
2023/08/30 11:28:49;;;;;;;7.55;3.97;;;18.60;99.90;;;;;;5030111;28;20018;-72
2023/08/30 11:31:19;;;;;;;4.72;2.70;;;18.80;99.90;;;;;;5030447;28;20486;-72
2023/08/30 11:33:55;;;;;;;6.70;3.72;;;18.90;99.90;;;;;;5029972;28;20021;-72
2023/08/30 11:36:22;;;;;;;9.95;3.88;;;18.90;99.90;;;;;;5031248;28;20029;-73
2023/08/30 11:38:52;;;;;;;5.28;3.33;;;18.90;99.90;;;;;;5028748;28;20108;-73
2023/08/30 11:41:19;;;;;;;4.90;3.05;;;19.00;99.90;;;;;;5022303;28;20030;-72
2023/08/30 11:43:45;;;;;;;5.18;3.03;;;19.10;99.90;;;;;;5030247;28;20025;-72
2023/08/30 11:46:12;;;;;;;7.07;3.35;;;19.20;99.90;;;;;;5019483;28;20029;-73
2023/08/30 11:48:39;;;;;;;4.85;2.03;;;19.30;99.90;;;;;;5026856;28;20539;-71
2023/08/30 11:51:06;;;;;;;5.15;2.05;;;19.30;99.90;;;;;;5021415;28;20084;-73
2023/08/30 11:53:32;;;;;;;4.45;1.40;;;19.30;99.90;;;;;;5024741;28;20392;-72
2023/08/30 11:55:58;;;;;;;6.47;2.08;;;19.20;99.90;;;;;;5028341;28;20560;-72
2023/08/30 11:58:23;;;;;;;6.93;1.90;;;19.10;99.90;;;;;;5028125;28;20112;-74
2023/08/30 12:00:50;;;;;;;4.38;1.90;;;19.10;99.90;;;;;;5029839;28;20473;-73
2023/08/30 12:03:16;;;;;;;6.55;2.00;;;19.10;99.90;;;;;;5026752;28;20044;-76
2023/08/30 12:05:49;;;;;;;4.60;1.80;;;19.10;99.90;;;;;;5029195;28;20025;-73
2023/08/30 12:08:24;;;;;;;5.88;1.90;;;19.00;99.90;;;;;;5027908;28;20037;-74
2023/08/30 12:10:49;;;;;;;4.72;1.80;;;18.90;99.90;;;;;;5020730;28;20056;-73
2023/08/30 12:13:25;;;;;;;6.32;1.95;;;18.60;99.90;;;;;;5029405;28;20488;-74
2023/08/30 12:15:55;;;;;;;7.53;2.38;;;18.20;99.90;;;;;;5029624;28;20037;-73
2023/08/30 12:18:32;;;;;;;8.82;2.38;;;17.70;99.90;;;;;;5030179;28;20033;-73
2023/08/30 12:20:59;;;;;;;8.00;1.95;;;17.50;99.90;;;;;;5030739;28;20025;-74
2023/08/30 12:23:27;;;;;;;5.53;1.92;;;17.40;99.90;;;;;;5019962;28;20516;-74
2023/08/30 12:26:04;;;;;;;8.07;2.92;;;17.50;99.90;;;;;;5016137;28;20022;-74
2023/08/30 12:28:30;;;;;;;6.70;2.38;;;17.80;99.90;;;;;;5029047;28;20057;-74
2023/08/30 12:30:57;;;;;;;4.97;1.98;;;18.00;99.90;;;;;;5008777;28;20021;-74
2023/08/30 12:33:25;;;;;;;7.13;2.90;;;18.30;99.90;;;;;;5028408;28;20377;-74